createdAt,value
2019-06-07T00:02:24.076Z,9.37
2019-06-07T00:07:46.938Z,8.57
2019-06-07T00:13:10.392Z,9.23
2019-06-07T00:18:34.250Z,8.93
2019-06-07T00:23:56.480Z,9.20
2019-06-07T00:29:22.013Z,8.60
2019-06-07T00:34:43.787Z,9.33
2019-06-07T00:40:16.163Z,9.33
2019-06-07T00:45:31.008Z,8.37
2019-06-07T00:50:53.853Z,7.47
2019-06-07T00:56:18.756Z,7.77
2019-06-07T01:01:42.271Z,7.90
2019-06-07T01:07:04.940Z,8.37
2019-06-07T01:12:27.597Z,7.97
2019-06-07T01:18:32.887Z,7.63
2019-06-07T01:23:58.004Z,7.73
2019-06-07T01:28:37.538Z,7.80
2019-06-07T01:34:00.280Z,9.83
2019-06-07T01:39:24.706Z,8.63
2019-06-07T01:44:46.559Z,9.00
2019-06-07T01:50:09.097Z,9.47
2019-06-07T01:55:32.959Z,9.90
2019-06-07T02:00:56.296Z,9.33
2019-06-07T02:06:20.514Z,6.33
2019-06-07T02:11:42.966Z,4.23
2019-06-07T02:17:05.942Z,4.20
2019-06-07T02:22:32.106Z,5.40
2019-06-07T02:27:52.981Z,6.23
2019-06-07T02:33:16.290Z,6.80
2019-06-07T02:38:39.189Z,5.47
2019-06-07T02:44:01.376Z,6.20
2019-06-07T02:49:28.254Z,6.80
2019-06-07T02:54:48.097Z,4.80
2019-06-07T03:00:40.466Z,5.73
2019-06-07T03:05:38.773Z,4.60
2019-06-07T03:11:01.149Z,3.87
2019-06-07T03:16:31.150Z,3.97
2019-06-07T03:21:53.514Z,4.00
2019-06-07T03:27:34.780Z,4.43
2019-06-07T03:32:47.290Z,4.50
2019-06-07T03:38:04.585Z,5.80
2019-06-07T03:43:27.462Z,4.43
2019-06-07T03:48:50.012Z,5.10
2019-06-07T03:54:13.204Z,4.73
2019-06-07T03:59:38.679Z,5.03
2019-06-07T04:04:59.865Z,4.60
2019-06-07T04:10:44.732Z,4.70
2019-06-07T04:15:48.237Z,4.67
2019-06-07T04:21:10.924Z,4.47
2019-06-07T04:26:35.065Z,4.23
2019-06-07T04:31:57.693Z,4.00
2019-06-07T04:37:20.484Z,4.83
2019-06-07T04:42:45.361Z,3.42
2019-06-07T04:48:07.048Z,2.60
2019-06-07T04:53:30.840Z,2.67
2019-06-07T04:58:52.934Z,2.42
2019-06-07T05:04:15.669Z,2.87
2019-06-07T05:09:42.540Z,4.00
2019-06-07T05:15:02.140Z,2.87
2019-06-07T05:20:26.592Z,3.00
2019-06-07T05:25:49.075Z,3.08
2019-06-07T05:31:11.944Z,3.20
2019-06-07T05:36:36.668Z,3.08
2019-06-07T05:41:58.466Z,2.27
2019-06-07T05:47:20.766Z,2.52
2019-06-07T05:52:46.880Z,2.55
2019-06-07T05:58:07.335Z,2.92
2019-06-07T06:03:29.826Z,2.55
2019-06-07T06:09:10.931Z,2.92
2019-06-07T06:14:16.390Z,2.70
2019-06-07T06:19:40.676Z,2.35
2019-06-07T06:30:29.320Z,2.58
2019-06-07T06:35:52.388Z,2.87
2019-06-07T06:41:16.514Z,2.15
2019-06-07T06:46:44.734Z,2.50
2019-06-07T06:56:06.889Z,2.60
2019-06-07T07:01:31.756Z,2.45
2019-06-07T07:06:56.803Z,2.70
2019-06-07T07:12:21.246Z,2.30
2019-06-07T07:17:53.917Z,2.30
2019-06-07T07:23:11.819Z,2.70
2019-06-07T07:28:36.209Z,2.42
2019-06-07T07:34:28.956Z,2.67
2019-06-07T07:39:25.653Z,2.30
2019-06-07T07:44:54.588Z,2.70
2019-06-07T07:50:16.157Z,2.40
2019-06-07T07:55:40.737Z,2.20
2019-06-07T08:01:10.401Z,2.20
2019-06-07T08:06:30.077Z,2.95
2019-06-07T08:12:00.087Z,2.70
2019-06-07T08:17:19.499Z,2.42
2019-06-07T08:22:44.211Z,2.35
2019-06-07T08:28:08.988Z,3.12
2019-06-07T08:33:34.011Z,3.67
2019-06-07T08:39:06.582Z,2.40
2019-06-07T08:44:25.606Z,2.95
2019-06-07T08:49:50.591Z,3.08
2019-06-07T08:55:15.578Z,2.58
2019-06-07T09:00:47.076Z,2.25
2019-06-07T09:06:27.562Z,3.02
2019-06-07T09:11:31.994Z,2.37
2019-06-07T09:17:01.291Z,3.02
2019-06-07T09:22:21.719Z,2.83
2019-06-07T09:27:46.436Z,2.47
2019-06-07T09:33:12.220Z,3.08
2019-06-07T09:38:36.856Z,2.85
2019-06-07T09:44:13.058Z,2.47
2019-06-07T09:49:32.611Z,2.30
2019-06-07T09:55:19.643Z,2.05
2019-06-07T10:00:39.662Z,2.62
2019-06-07T10:05:44.900Z,2.22
2019-06-07T10:11:08.745Z,2.98
2019-06-07T10:16:46.073Z,2.37
2019-06-07T10:21:59.117Z,2.52
2019-06-07T10:27:23.250Z,2.77
2019-06-07T10:32:51.807Z,2.60
2019-06-07T10:38:13.040Z,3.02
2019-06-07T10:43:37.075Z,2.37
2019-06-07T10:49:01.968Z,2.40
2019-06-07T10:54:30.565Z,2.40
2019-06-07T10:59:52.466Z,2.00
2019-06-07T11:05:17.586Z,1.95
2019-06-07T11:10:41.226Z,1.90
2019-06-07T11:16:06.726Z,2.50
2019-06-07T11:21:31.862Z,1.90
2019-06-07T11:26:55.469Z,2.00
2019-06-07T11:32:19.925Z,2.00
2019-06-07T11:37:44.657Z,2.27
2019-06-07T11:43:09.144Z,1.70
2019-06-07T11:48:32.934Z,1.82
2019-06-07T11:53:56.540Z,1.92
2019-06-07T11:59:20.445Z,2.05
2019-06-07T12:04:44.324Z,1.80
2019-06-07T12:10:10.791Z,2.37
2019-06-07T12:15:35.584Z,2.30
2019-06-07T12:20:59.169Z,2.15
2019-06-07T12:26:23.893Z,2.50
2019-06-07T12:31:48.778Z,2.40
2019-06-07T12:37:13.901Z,2.00
2019-06-07T12:42:37.967Z,2.02
2019-06-07T12:48:02.909Z,2.02
2019-06-07T12:53:28.275Z,2.30
2019-06-07T12:58:53.705Z,2.52
2019-06-07T13:04:18.485Z,2.40
2019-06-07T13:09:44.160Z,2.70
2019-06-07T13:15:08.583Z,2.00
2019-06-07T13:20:32.701Z,2.08
2019-06-07T13:25:57.521Z,2.37
2019-06-07T13:31:23.398Z,2.50
2019-06-07T13:36:47.727Z,2.02
2019-06-07T13:42:12.114Z,2.47
2019-06-07T13:47:36.696Z,2.37
2019-06-07T13:53:02.501Z,2.33
2019-06-07T13:58:28.557Z,2.50
2019-06-07T14:03:53.023Z,2.20
2019-06-07T14:09:16.630Z,2.00
2019-06-07T14:14:40.497Z,2.35
2019-06-07T14:20:06.525Z,2.35
2019-06-07T14:25:31.418Z,2.40
2019-06-07T14:30:56.244Z,2.10
2019-06-07T14:36:20.994Z,2.33
2019-06-07T14:41:45.549Z,2.10
2019-06-07T14:47:09.415Z,2.45
2019-06-07T14:52:35.138Z,2.80
2019-06-07T14:58:00.042Z,2.30
2019-06-07T15:03:26.303Z,2.22
2019-06-07T15:08:51.536Z,2.80
2019-06-07T15:14:16.847Z,2.40
2019-06-07T15:19:41.614Z,2.58
2019-06-07T15:25:06.213Z,1.98
2019-06-07T15:30:31.605Z,2.52
2019-06-07T15:35:56.695Z,2.50
2019-06-07T15:41:21.108Z,2.27
2019-06-07T15:46:47.174Z,2.37
2019-06-07T15:52:10.803Z,2.75
2019-06-07T15:57:35.289Z,2.72
2019-06-07T16:03:00.106Z,4.00
2019-06-07T16:08:24.151Z,2.67
2019-06-07T16:13:48.857Z,3.10
2019-06-07T16:19:13.369Z,2.85
2019-06-07T16:24:37.882Z,2.72
2019-06-07T16:30:08.951Z,2.62
2019-06-07T16:35:27.868Z,3.22
2019-06-07T16:40:51.727Z,2.90
2019-06-07T16:46:16.422Z,2.87
2019-06-07T16:51:41.402Z,3.10
2019-06-07T16:57:05.114Z,3.35
2019-06-07T17:02:29.514Z,3.08
2019-06-07T17:07:54.180Z,3.42
2019-06-07T17:13:32.395Z,3.15
2019-06-07T17:18:45.216Z,3.60
2019-06-07T17:24:09.511Z,3.52
2019-06-07T17:29:33.502Z,3.55
2019-06-07T17:34:57.404Z,3.50
2019-06-07T17:40:21.949Z,3.98
2019-06-07T17:45:47.506Z,4.08
2019-06-07T17:51:12.031Z,4.65
2019-06-07T17:56:36.615Z,4.00
2019-06-07T18:02:14.021Z,5.40
2019-06-07T18:07:28.853Z,5.45
2019-06-07T18:12:53.045Z,6.22
2019-06-07T18:18:19.000Z,6.47
2019-06-07T18:23:43.419Z,7.00
2019-06-07T18:29:08.027Z,7.50
2019-06-07T18:34:32.997Z,7.60
2019-06-07T18:39:57.397Z,8.55
2019-06-07T18:45:22.005Z,8.83
2019-06-07T18:50:46.506Z,8.93
2019-06-07T18:56:10.683Z,9.10
2019-06-07T19:01:35.398Z,9.78
2019-06-07T19:07:00.076Z,10.05
2019-06-07T19:12:25.004Z,11.53
2019-06-07T19:17:49.719Z,11.57
2019-06-07T19:23:15.765Z,12.25
2019-06-07T19:28:40.450Z,12.33
2019-06-07T19:34:05.194Z,11.97
2019-06-07T19:39:29.522Z,12.68
2019-06-07T19:45:00.852Z,12.70
2019-06-07T19:50:20.498Z,13.15
2019-06-07T19:55:44.764Z,13.25
2019-06-07T20:01:09.252Z,13.50
2019-06-07T20:06:34.049Z,13.70
2019-06-07T20:11:58.450Z,13.62
2019-06-07T20:17:23.112Z,14.18
2019-06-07T20:22:47.866Z,12.75
2019-06-07T20:28:12.282Z,13.45
2019-06-07T20:33:37.050Z,13.30
2019-06-07T20:39:02.183Z,11.95
2019-06-07T20:44:28.177Z,11.43
2019-06-07T20:49:52.266Z,12.95
2019-06-07T20:55:16.312Z,10.93
2019-06-07T21:00:41.307Z,11.85
2019-06-07T21:06:07.418Z,11.33
2019-06-07T21:11:32.242Z,12.20
2019-06-07T21:16:56.306Z,12.95
2019-06-07T21:22:20.393Z,12.58
2019-06-07T21:27:45.391Z,12.43
2019-06-07T21:33:09.875Z,12.55
2019-06-07T21:38:34.814Z,12.18
2019-06-07T21:43:59.828Z,12.07
2019-06-07T21:49:25.569Z,11.70
2019-06-07T21:54:49.420Z,11.25
2019-06-07T22:00:17.475Z,13.08
2019-06-07T22:05:43.381Z,11.97
2019-06-07T22:11:08.220Z,10.85
2019-06-07T22:16:32.403Z,11.50
2019-06-07T22:22:02.517Z,11.97
2019-06-07T22:27:21.884Z,11.78
2019-06-07T22:32:46.067Z,12.15
2019-06-07T22:38:10.534Z,11.15
2019-06-07T22:43:35.838Z,12.13
2019-06-07T22:49:00.893Z,12.40
2019-06-07T22:54:25.984Z,12.63
2019-06-07T22:59:49.580Z,13.00
2019-06-07T23:05:14.716Z,12.68
2019-06-07T23:10:38.769Z,13.30
2019-06-07T23:16:03.834Z,13.08
2019-06-07T23:21:28.403Z,13.80
2019-06-07T23:26:52.901Z,14.53
2019-06-07T23:32:16.768Z,13.75
2019-06-07T23:37:42.501Z,14.25
2019-06-07T23:43:06.328Z,14.98
2019-06-07T23:48:31.164Z,14.55
2019-06-07T23:53:55.816Z,13.88
2019-06-07T23:59:20.475Z,14.95
